Flight Track Log - Related Links

Times and Time Zones

All times are in EDT time to prevent confusion due to time zone crossing. See the DAL3794 flight status page for this flight to view local times or setup timezone preferences in your user account.

Time Position Orientation Groundspeed Altitude Reporting Facility
EDT Latitude Longitude Course Direction KTS MPH feet Rate Location/Type
Thu 08:38:48 PM 42.1964 -83.3572 185° South 179 206 1,600  Level Cleveland Center
Thu 08:39:26 PM 42.1697 -83.3606 185° South 183 211 3,000 2,651 Climbing Cleveland Center
Thu 08:39:31 PM 42.1581 -83.3631 189° South 202 232 3,500 2,032 Climbing Cleveland Center
Thu 08:40:28 PM 42.1058 -83.3678 184° South 219 252 5,100 2,149 Climbing Cleveland Center
Thu 08:40:38 PM 42.0819 -83.3722 188° South 267 307 5,900 2,613 Climbing Cleveland Center
Thu 08:41:30 PM 42.0297 -83.3797 186° South 268 308 7,800 2,509 Climbing Cleveland Center
Thu 08:41:33 PM 42.0183 -83.3828 191° South 273 314 8,200 2,516 Climbing Cleveland Center
Thu 08:42:32 PM 41.9428 -83.4136 197° South 278 320 10,400 1,289 Climbing Cleveland Center
Thu 08:43:34 PM 41.8581 -83.4650 204° Southwest 326 375 10,800 726 Climbing Cleveland Center
Thu 08:44:36 PM 41.7614 -83.5211 203° Southwest 371 427 11,900 1,210 Climbing Cleveland Center
Thu 08:45:38 PM 41.6625 -83.5747 202° Southwest 382 440 13,300 1,452 Climbing Cleveland Center
Thu 08:46:40 PM 41.5578 -83.6042 192° South 386 444 14,900 1,296 Climbing Cleveland Center
Thu 08:47:43 PM 41.4539 -83.6372 193° South 385 443 16,000 1,104 Climbing Cleveland Center
Thu 08:48:45 PM 41.3419 -83.7169 208° Southwest 380 437 17,200 1,113 Climbing Cleveland Center
Thu 08:49:47 PM 41.2486 -83.7831 208° Southwest 380 437 18,300 1,016 Climbing Cleveland Center
Thu 08:50:49 PM 41.1556 -83.8517 209° Southwest 381 438 19,300 1,000 Climbing Cleveland Center
Thu 08:51:29 PM 41.0903 -83.8989 209° Southwest 379 436 20,000 1,000 Climbing Indianapolis Center
Thu 08:52:31 PM 41.0017 -83.9625 208° Southwest 374 430 21,000 968 Climbing Indianapolis Center
Thu 08:53:33 PM 40.9106 -84.0278 208° Southwest 374 430 22,000 976 Climbing Indianapolis Center
Thu 08:54:34 PM 40.8333 -84.1150 221° Southwest 372 428 23,000 976 Climbing Indianapolis Center
Thu 08:55:36 PM 40.7639 -84.2050 224° Southwest 355 409 24,000 1,073 Climbing Indianapolis Center
Thu 08:56:37 PM 40.6819 -84.3094 224° Southwest 344 396 25,200 984 Climbing Indianapolis Center
Thu 08:57:38 PM 40.6150 -84.3964 225° Southwest 339 390 26,000 390 Climbing Indianapolis Center
Thu 08:58:40 PM 40.5467 -84.4847 225° Southwest 345 397 26,000  Level Indianapolis Center
Thu 08:59:41 PM 40.4739 -84.5781 224° Southwest 363 418 26,000  Level Indianapolis Center
Thu 09:00:43 PM 40.3986 -84.6725 224° Southwest 374 430 26,000  Level Indianapolis Center
Thu 09:01:44 PM 40.3233 -84.7683 224° Southwest 377 434 26,000  Level Indianapolis Center
Thu 09:02:46 PM 40.2472 -84.8661 224° Southwest 383 441 26,000  Level Indianapolis Center
Thu 09:03:47 PM 40.1650 -84.9697 224° Southwest 388 447 26,000  Level Indianapolis Center
Thu 09:04:48 PM 40.0869 -85.0669 224° Southwest 388 447 26,000  Level Indianapolis Center
Thu 09:05:50 PM 40.0081 -85.1653 224° Southwest 390 449 26,000  Level Indianapolis Center
Thu 09:06:51 PM 39.9147 -85.2825 224° Southwest 389 448 26,000  Level Indianapolis Center
Thu 09:07:53 PM 39.8356 -85.3800 223° Southwest 391 450 26,000  Level Indianapolis Center
Thu 09:08:54 PM 39.7572 -85.4761 223° Southwest 388 447 26,000  Level Indianapolis Center
Thu 09:09:56 PM 39.6792 -85.5736 224° Southwest 389 448 26,000 -390 Level Indianapolis Center
Thu 09:10:57 PM 39.6006 -85.6697 223° Southwest 388 447 25,200 -1,180 Descending Indianapolis Center
Thu 09:11:58 PM 39.5147 -85.7758 224° Southwest 402 463 23,600 -1,073 Descending Indianapolis Center
Thu 09:13:00 PM 39.4369 -85.8703 223° Southwest 400 460 23,000 -293 Descending Indianapolis Center
Thu 09:14:01 PM 39.3567 -85.9692 224° Southwest 398 458 23,000  Level Indianapolis Center
Thu 09:15:03 PM 39.2775 -86.0664 224° Southwest 393 452 23,000  Level Indianapolis Center
Thu 09:16:04 PM 39.1972 -86.1625 223° Southwest 392 451 23,000  Level Indianapolis Center
Thu 09:17:05 PM 39.1019 -86.2783 223° Southwest 392 451 23,000 -488 Level Indianapolis Center
Thu 09:18:07 PM 39.0219 -86.3744 223° Southwest 394 453 22,000 -976 Descending Indianapolis Center
Thu 09:19:08 PM 38.9417 -86.4700 223° Southwest 394 453 21,000 -976 Descending Indianapolis Center
Thu 09:20:10 PM 38.8586 -86.5703 223° Southwest 388 447 20,000 -976 Descending Indianapolis Center
Thu 09:21:11 PM 38.7789 -86.6639 222° Southwest 387 445 19,000 -984 Descending Indianapolis Center
Thu 09:22:12 PM 38.6994 -86.7578 223° Southwest 387 445 18,000 -934 Descending Indianapolis Center
Thu 09:23:13 PM 38.6208 -86.8522 223° Southwest 387 445 17,100 -1,073 Descending Indianapolis Center
Thu 09:24:15 PM 38.5614 -86.9575 234° Southwest 366 421 15,800 -2,152 Descending Indianapolis Center
Thu 09:26:17 PM 38.4325 -87.1331 227° Southwest 336 387 10,500 -2,283 Descending Indianapolis Center
Thu 09:27:19 PM 38.3742 -87.1933 219° Southwest 276 318 8,800 -1,756 Descending Indianapolis Center
Thu 09:28:20 PM 38.3022 -87.2639 218° Southwest 275 316 6,900 -1,574 Descending Indianapolis Center
Thu 09:29:21 PM 38.2478 -87.3183 218° Southwest 256 295 5,600 -1,317 Descending Indianapolis Center
Thu 09:30:23 PM 38.1958 -87.3725 219° Southwest 248 285 4,200 -1,268 Descending Indianapolis Center
Thu 09:31:24 PM 38.1467 -87.4194 217° Southwest 235 270 3,000 -1,122 Descending Indianapolis Center
Thu 09:32:26 PM 38.1019 -87.4642 218° Southwest 219 252 1,900 -927 Descending Indianapolis Center
Thu 09:33:27 PM 38.0700 -87.4967 219° Southwest 174 200 1,100 -541 Descending Indianapolis Center
Thu 09:34:28 PM 38.0414 -87.5267 220° Southwest 163 188 800 -295 Descending Indianapolis Center
Thu 09:36:00 PM 38.0333 -87.5167 218° Southwest  Level FlightAware Approximate
Thu 09:43:00 PM 38.0384 -87.5309 218° Southwest  Level Estimated
Thu 09:44:00 PM 38.0384 -87.5309 218° Southwest  Level Estimated

Login

Don't have an account? Register now (free) for customized features, flight alerts, and more!